Time;durP1;ratioP1;P1;durP2;ratioP2;P2;SDS_P1;SDS_P2;PMS_P1;PMS_P2;Temp;Humidity;BMP_temperature;BMP_pressure;BME280_temperature;BME280_humidity;BME280_pressure;Samples;Min_cycle;Max_cycle;Signal;HPM_P1;HPM_P2
2024/04/02 00:04:13;;;;;;;3.00;0.82;;;;;;;17.42;55.90;99961.09;10454214;28;20279;-62
2024/04/02 00:09:14;;;;;;;1.25;0.80;;;;;;;17.44;54.80;99964.25;10436223;28;20376;-62
2024/04/02 00:14:14;;;;;;;2.45;0.77;;;;;;;17.47;55.28;99969.78;10452592;28;20076;-62
2024/04/02 00:19:15;;;;;;;1.47;0.73;;;;;;;17.43;56.10;99971.50;10435607;28;20175;-62
2024/04/02 00:24:15;;;;;;;2.25;1.10;;;;;;;17.39;55.45;99973.19;10453590;28;20278;-62
2024/04/02 00:29:17;;;;;;;1.87;1.17;;;;;;;17.45;56.03;99968.53;10453089;28;20083;-62
2024/04/02 00:34:17;;;;;;;0.95;0.80;;;;;;;17.44;55.94;99977.66;10453109;28;20259;-62
2024/04/02 00:39:18;;;;;;;1.60;1.00;;;;;;;17.45;55.93;99988.06;10452799;28;20021;-62
2024/04/02 00:44:18;;;;;;;1.20;0.80;;;;;;;17.43;55.39;99979.56;10452936;28;20279;-62
2024/04/02 00:49:19;;;;;;;1.57;0.93;;;;;;;17.46;56.09;99981.63;10452335;28;20295;-62
2024/04/02 00:54:20;;;;;;;2.22;0.82;;;;;;;17.50;55.10;99985.25;10452700;28;20289;-62
2024/04/02 00:59:21;;;;;;;1.95;1.20;;;;;;;17.53;55.35;99992.72;10452123;28;20060;-62
2024/04/02 01:04:21;;;;;;;2.22;1.02;;;;;;;17.51;55.68;99994.09;10452128;28;20032;-62
2024/04/02 01:09:22;;;;;;;1.27;0.80;;;;;;;17.50;55.56;99998.66;10451840;28;20465;-62
2024/04/02 01:14:22;;;;;;;1.80;0.90;;;;;;;17.51;55.11;100010.16;10451655;28;20579;-62
2024/04/02 01:19:23;;;;;;;1.65;0.75;;;;;;;17.49;54.69;100004.31;10451149;28;20028;-62
2024/04/02 01:24:23;;;;;;;1.17;0.57;;;;;;;17.48;55.06;100008.91;10451384;28;20044;-62
2024/04/02 01:29:23;;;;;;;1.23;0.80;;;;;;;17.45;55.37;100009.50;10450811;28;20029;-62
2024/04/02 01:34:24;;;;;;;1.10;0.80;;;;;;;17.47;55.93;100007.31;10433513;28;20286;-62
2024/04/02 01:39:24;;;;;;;1.40;0.63;;;;;;;17.46;54.90;100012.97;10433043;28;20267;-62
2024/04/02 01:44:24;;;;;;;1.60;0.83;;;;;;;17.45;55.76;100017.56;10450777;28;20287;-62
2024/04/02 01:49:25;;;;;;;1.43;0.90;;;;;;;17.48;55.13;100018.81;10450564;28;20279;-62
2024/04/02 01:54:26;;;;;;;1.27;0.70;;;;;;;17.46;54.98;100021.03;10450705;28;20279;-62
2024/04/02 01:59:26;;;;;;;1.45;0.80;;;;;;;17.44;55.43;100024.00;10450332;28;20326;-62
2024/04/02 02:04:26;;;;;;;1.40;0.80;;;;;;;17.50;54.67;100024.66;10450823;28;20607;-62
2024/04/02 02:09:27;;;;;;;1.17;0.60;;;;;;;17.46;55.25;100029.06;10449965;28;20287;-61
2024/04/02 02:14:27;;;;;;;1.53;0.60;;;;;;;17.45;54.05;100032.84;10449675;28;20037;-62
2024/04/02 02:19:27;;;;;;;1.50;0.70;;;;;;;17.48;55.13;100024.97;10431767;28;20287;-62
2024/04/02 02:24:28;;;;;;;1.87;0.97;;;;;;;17.48;55.69;100035.69;10450067;28;20028;-62
2024/04/02 02:29:28;;;;;;;0.90;0.57;;;;;;;17.44;55.34;100042.78;10449515;28;20283;-62
2024/04/02 02:34:28;;;;;;;1.90;0.73;;;;;;;17.46;54.93;100040.56;10432464;28;20283;-62
2024/04/02 02:39:29;;;;;;;1.40;0.80;;;;;;;17.48;54.73;100042.94;10457658;28;20756;-62
2024/04/02 02:44:29;;;;;;;1.30;0.55;;;;;;;17.43;55.44;100043.88;10457665;28;20282;-62
2024/04/02 02:49:29;;;;;;;0.77;0.50;;;;;;;17.44;55.26;100048.13;10456993;28;20460;-62
2024/04/02 02:54:30;;;;;;;1.10;0.70;;;;;;;17.46;54.97;100056.66;10457230;28;20284;-61
2024/04/02 02:59:30;;;;;;;0.93;0.63;;;;;;;17.42;54.72;100054.91;10456760;28;20762;-62
2024/04/02 03:04:30;;;;;;;0.87;0.60;;;;;;;17.44;54.06;100055.38;10438736;28;20290;-62
2024/04/02 03:09:32;;;;;;;0.73;0.50;;;;;;;17.48;54.88;100051.78;10456072;28;20669;-62
2024/04/02 03:14:33;;;;;;;3.70;0.60;;;;;;;17.52;54.07;100060.00;10456264;28;20353;-62
2024/04/02 03:19:33;;;;;;;1.10;0.70;;;;;;;17.51;54.42;100066.47;10456287;28;20167;-62
2024/04/02 03:24:33;;;;;;;0.98;0.60;;;;;;;17.46;54.51;100070.06;10456386;28;20029;-62
2024/04/02 03:29:34;;;;;;;2.30;0.80;;;;;;;17.54;54.32;100068.56;10455447;28;20708;-62
2024/04/02 03:34:34;;;;;;;2.87;1.00;;;;;;;17.51;53.95;100074.50;10455749;28;20333;-62
2024/04/02 03:39:34;;;;;;;2.37;0.80;;;;;;;17.48;54.77;100085.84;10454954;28;20754;-63
2024/04/02 03:44:34;;;;;;;1.03;0.40;;;;;;;17.53;53.60;100081.16;10455218;28;20275;-62
2024/04/02 03:49:35;;;;;;;1.50;0.80;;;;;;;17.50;54.49;100079.06;10454427;28;20634;-62
2024/04/02 03:54:35;;;;;;;1.50;0.80;;;;;;;17.48;54.17;100086.63;10454881;28;20275;-62
2024/04/02 03:59:35;;;;;;;0.90;0.50;;;;;;;17.51;54.04;100086.00;10454435;28;20830;-62
2024/04/02 04:04:36;;;;;;;2.13;0.57;;;;;;;17.48;54.53;100096.56;10454431;28;20294;-62
2024/04/02 04:09:36;;;;;;;1.60;0.68;;;;;;;17.48;54.06;100107.28;10454036;28;20025;-62
2024/04/02 04:14:36;;;;;;;1.20;0.60;;;;;;;17.50;54.45;100113.91;10435986;28;20052;-62
2024/04/02 04:19:37;;;;;;;1.03;0.60;;;;;;;17.46;54.91;100115.63;10453566;28;20025;-62
2024/04/02 04:24:37;;;;;;;1.03;0.63;;;;;;;17.48;54.12;100118.78;10453852;28;20812;-62
2024/04/02 04:29:37;;;;;;;1.27;0.70;;;;;;;17.48;54.81;100115.31;10453281;28;20028;-62
2024/04/02 04:34:38;;;;;;;0.50;0.33;;;;;;;17.44;54.64;100123.19;10453393;28;20275;-62
2024/04/02 04:39:38;;;;;;;1.27;0.60;;;;;;;17.49;54.11;100124.94;10452501;28;20279;-62
2024/04/02 04:44:42;;;;;;;1.30;0.60;;;;;;;17.47;54.06;100137.84;10424563;28;20029;-62
2024/04/02 04:49:43;;;;;;;1.33;0.70;;;;;;;17.59;54.81;100140.00;10451068;28;20368;-62
2024/04/02 04:54:43;;;;;;;1.80;1.03;;;;;;;17.61;54.40;100154.69;10450710;28;20087;-62
2024/04/02 04:59:43;;;;;;;4.20;1.00;;;;;;;17.54;55.07;100162.38;10448000;28;20291;-61
2024/04/02 05:04:44;;;;;;;3.80;1.30;;;;;;;17.37;54.79;100159.50;10440558;28;20109;-60
2024/04/02 05:09:44;;;;;;;6.87;2.20;;;;;;;17.42;55.11;100167.47;10450834;28;20293;-62
2024/04/02 05:14:44;;;;;;;5.10;1.27;;;;;;;17.63;55.87;100171.25;10432245;28;20287;-60
2024/04/02 05:19:45;;;;;;;7.77;1.83;;;;;;;17.73;56.64;100172.97;10450413;28;20276;-61
2024/04/02 05:24:45;;;;;;;4.63;1.63;;;;;;;17.70;56.09;100181.63;10451024;28;20286;-64
2024/04/02 05:29:46;;;;;;;8.37;1.60;;;;;;;17.53;55.71;100172.31;10432275;28;20070;-63
2024/04/02 05:34:47;;;;;;;4.78;1.60;;;;;;;17.54;56.52;100178.44;10416145;28;20983;-62
2024/04/02 05:39:50;;;;;;;13.77;1.93;;;;;;;17.55;56.61;100198.81;10449803;28;20021;-59
2024/04/02 05:44:50;;;;;;;13.82;1.92;;;;;;;17.48;56.95;100201.09;10449635;28;20321;-60
2024/04/02 05:49:51;;;;;;;7.53;2.28;;;;;;;17.43;57.54;100211.91;10430100;28;20095;-63
2024/04/02 05:54:51;;;;;;;12.67;2.90;;;;;;;17.33;57.35;100210.25;10450076;28;20028;-63
2024/04/02 05:59:51;;;;;;;12.23;2.42;;;;;;;17.39;57.88;100208.22;10431188;28;20785;-64
2024/04/02 06:04:52;;;;;;;11.77;2.67;;;;;;;17.48;57.88;100211.81;10431756;28;20415;-64
2024/04/02 06:09:52;;;;;;;4.35;1.70;;;;;;;17.31;57.83;100220.47;10421554;28;20291;-62
2024/04/02 06:14:52;;;;;;;10.93;2.33;;;;;;;17.19;57.10;100217.50;10457747;28;20178;-62
2024/04/02 06:19:53;;;;;;;12.40;2.30;;;;;;;17.15;56.77;100219.16;10452630;28;20337;-62
2024/04/02 06:24:53;;;;;;;7.57;1.98;;;;;;;17.09;57.28;100223.03;10439949;28;20282;-62
2024/04/02 06:29:53;;;;;;;8.30;1.93;;;;;;;17.11;58.79;100232.38;10456181;28;20025;-62
2024/04/02 06:34:54;;;;;;;5.03;1.50;;;;;;;17.14;57.64;100225.63;10438551;28;20293;-60
2024/04/02 06:39:54;;;;;;;9.37;1.93;;;;;;;17.17;57.13;100241.91;10456153;28;20488;-61
2024/04/02 06:44:55;;;;;;;6.18;2.03;;;;;;;17.15;57.47;100237.91;10454672;28;20287;-61
2024/04/02 06:49:55;;;;;;;8.10;1.75;;;;;;;17.16;57.02;100244.84;10455282;28;20032;-60
2024/04/02 06:54:55;;;;;;;6.90;2.50;;;;;;;17.15;56.83;100254.78;10454660;28;20529;-61
2024/04/02 06:59:56;;;;;;;3.63;1.37;;;;;;;17.16;57.25;100247.53;10455816;28;20302;-61
2024/04/02 07:04:56;;;;;;;5.63;1.33;;;;;;;17.16;57.79;100244.84;10456594;28;20713;-62
2024/04/02 07:09:56;;;;;;;5.23;1.47;;;;;;;17.14;56.33;100244.38;10421477;28;20421;-62
2024/04/02 07:14:57;;;;;;;5.30;1.50;;;;;;;17.14;56.88;100258.56;10454434;28;20764;-63
2024/04/02 07:19:57;;;;;;;2.90;1.07;;;;;;;17.17;56.88;100266.00;10454896;28;20279;-61
2024/04/02 07:24:58;;;;;;;3.90;1.48;;;;;;;17.14;57.59;100277.31;10455295;28;20268;-60
2024/04/02 07:29:58;;;;;;;3.87;1.17;;;;;;;17.15;57.03;100281.56;10437314;28;20040;-62
2024/04/02 07:34:58;;;;;;;3.10;1.00;;;;;;;17.17;57.66;100278.63;10436931;28;20263;-61
2024/04/02 07:39:59;;;;;;;4.13;1.73;;;;;;;17.20;56.90;100278.81;10420916;28;20028;-61
2024/04/02 07:44:59;;;;;;;4.00;1.58;;;;;;;17.18;58.10;100283.69;10436484;28;20299;-61
2024/04/02 07:49:59;;;;;;;3.77;1.57;;;;;;;17.18;57.13;100297.06;10436423;28;20036;-60
2024/04/02 07:55:00;;;;;;;3.00;1.10;;;;;;;17.17;57.47;100297.38;10454149;28;20802;-60
2024/04/02 08:00:00;;;;;;;2.80;1.13;;;;;;;17.20;56.23;100302.13;10436337;28;20291;-60
2024/04/02 08:05:01;;;;;;;3.10;1.43;;;;;;;17.20;57.34;100310.97;10435241;28;20329;-61
2024/04/02 08:10:02;;;;;;;5.13;1.00;;;;;;;17.21;57.26;100307.19;10435200;28;20333;-60
2024/04/02 08:15:02;;;;;;;5.55;1.42;;;;;;;17.22;57.22;100314.13;10452921;28;20053;-61
2024/04/02 08:20:03;;;;;;;4.18;1.50;;;;;;;17.24;57.05;100319.19;10435291;28;20025;-60
2024/04/02 08:25:04;;;;;;;3.42;1.25;;;;;;;17.23;57.48;100326.44;10452798;28;20017;-60
2024/04/02 08:30:05;;;;;;;2.25;1.23;;;;;;;17.22;56.51;100334.78;10452602;28;20048;-61
2024/04/02 08:35:06;;;;;;;3.25;1.85;;;;;;;17.18;56.63;100325.75;10416706;28;20538;-60
2024/04/02 08:40:09;;;;;;;4.20;1.52;;;;;;;17.18;57.36;100331.91;10434482;28;20049;-61
2024/04/02 08:45:09;;;;;;;3.92;1.40;;;;;;;17.17;56.50;100334.88;10434271;28;20423;-61
2024/04/02 08:50:11;;;;;;;5.15;1.50;;;;;;;17.16;57.22;100341.28;10451814;28;20024;-60
2024/04/02 08:55:11;;;;;;;4.38;1.38;;;;;;;17.19;56.87;100348.78;10451473;28;20028;-61
2024/04/02 09:00:12;;;;;;;5.35;1.20;;;;;;;17.18;57.28;100357.91;10447826;28;20029;-63
2024/04/02 09:05:13;;;;;;;3.53;1.73;;;;;;;17.18;57.88;100357.91;10444955;28;20115;-61
2024/04/02 09:10:14;;;;;;;2.83;1.00;;;;;;;17.19;57.97;100348.78;10451130;28;20027;-62
2024/04/02 09:15:15;;;;;;;6.90;1.60;;;;;;;17.17;57.24;100362.47;10407875;28;20324;-61
2024/04/02 09:20:15;;;;;;;6.18;1.15;;;;;;;17.16;57.67;100366.19;10401557;28;20042;-61
2024/04/02 09:25:18;;;;;;;4.18;1.38;;;;;;;17.16;56.44;100362.72;10373439;28;20551;-59
2024/04/02 09:30:19;;;;;;;2.45;1.45;;;;;;;17.16;57.60;100360.84;10368546;28;20033;-61
2024/04/02 09:35:32;;;;;;;7.05;1.50;;;;;;;17.16;56.28;100360.84;10353861;28;20647;-60
2024/04/02 09:40:33;;;;;;;2.05;0.90;;;;;;;17.17;56.40;100359.00;10350949;28;20493;-61
2024/04/02 09:45:34;;;;;;;2.83;1.35;;;;;;;17.17;57.20;100361.66;10349953;28;20049;-61
2024/04/02 09:50:35;;;;;;;2.47;0.98;;;;;;;17.13;57.32;100366.00;10367894;28;20034;-61
2024/04/02 09:55:36;;;;;;;2.22;1.05;;;;;;;17.14;57.53;100357.66;10350070;28;20053;-60
2024/04/02 10:00:37;;;;;;;3.78;1.65;;;;;;;17.14;57.98;100370.28;10367138;28;20037;-60
2024/04/02 10:05:37;;;;;;;1.85;1.05;;;;;;;17.14;56.82;100365.72;10368527;28;20036;-61
2024/04/02 10:10:40;;;;;;;3.77;1.20;;;;;;;17.15;56.89;100367.28;10399294;28;20025;-61
2024/04/02 10:15:51;;;;;;;4.18;1.35;;;;;;;17.14;57.13;100378.31;10348540;28;20292;-61
2024/04/02 10:20:59;;;;;;;4.05;1.02;;;;;;;17.11;57.87;100371.66;10343538;28;20030;-62
2024/04/02 10:25:59;;;;;;;3.40;1.10;;;;;;;17.08;57.16;100391.00;10348569;28;20112;-61
2024/04/02 10:31:00;;;;;;;2.83;1.33;;;;;;;17.11;57.87;100389.63;10349361;28;20056;-62
2024/04/02 10:36:02;;;;;;;5.77;1.37;;;;;;;17.10;56.35;100390.72;10362315;28;20389;-61
2024/04/02 10:41:03;;;;;;;3.75;1.55;;;;;;;17.10;57.42;100401.44;10366637;28;20268;-62
2024/04/02 10:46:04;;;;;;;5.32;1.40;;;;;;;17.07;56.58;100402.81;10366117;28;20041;-62
2024/04/02 10:51:05;;;;;;;2.38;1.30;;;;;;;17.06;56.92;100403.91;10352840;28;20105;-60
2024/04/02 10:56:05;;;;;;;6.43;1.77;;;;;;;17.06;57.60;100398.53;10372816;28;20037;-60
2024/04/02 11:01:05;;;;;;;3.83;1.10;;;;;;;17.07;56.35;100399.34;10356988;28;20628;-60
2024/04/02 11:06:07;;;;;;;2.95;1.20;;;;;;;17.05;56.50;100396.97;10344720;28;20025;-60
2024/04/02 11:11:17;;;;;;;1.38;0.65;;;;;;;17.14;57.10;100389.03;10356043;28;20115;-60
2024/04/02 11:16:18;;;;;;;1.17;0.98;;;;;;;17.20;56.22;100398.59;10410909;28;20056;-60
2024/04/02 11:21:21;;;;;;;2.80;1.38;;;;;;;17.21;55.67;100403.66;10400944;28;20064;-60
2024/04/02 11:26:21;;;;;;;4.13;1.05;;;;;;;17.21;57.24;100410.88;10369664;28;20022;-60
2024/04/02 11:31:21;;;;;;;3.25;0.90;;;;;;;17.17;56.86;100416.03;10372886;28;20030;-59
2024/04/02 11:36:22;;;;;;;3.27;1.30;;;;;;;17.12;57.33;100412.63;10370730;28;20127;-61
2024/04/02 11:41:23;;;;;;;3.73;1.13;;;;;;;17.08;56.10;100415.13;10371503;28;20288;-62
2024/04/02 11:46:24;;;;;;;4.38;1.17;;;;;;;17.08;57.47;100411.66;10335664;28;20292;-61
2024/04/02 11:51:24;;;;;;;2.60;1.30;;;;;;;17.04;57.86;100416.78;10353899;28;20026;-60
2024/04/02 12:00:00;;;;;;;6.73;1.60;;;;;;;17.23;56.66;100416.75;10371572;28;20026;-59
2024/04/02 12:01:45;;;;;;;7.25;1.27;;;;;;;17.21;56.58;100411.69;10371519;28;20784;-60
2024/04/02 12:06:45;;;;;;;5.80;1.30;;;;;;;17.23;56.64;100409.50;10381579;28;20018;-60
2024/04/02 12:11:46;;;;;;;4.17;1.33;;;;;;;17.17;56.66;100412.56;10392017;28;20288;-61
2024/04/02 12:16:46;;;;;;;6.53;1.73;;;;;;;17.20;57.34;100412.78;10358065;28;20291;-60
2024/04/02 12:21:46;;;;;;;9.10;1.97;;;;;;;17.36;58.25;100407.16;10361563;28;20037;-60
2024/04/02 12:26:47;;;;;;;9.53;1.73;;;;;;;17.36;57.60;100407.16;10370569;28;20293;-60
2024/04/02 12:31:47;;;;;;;13.30;1.77;;;;;;;17.33;56.88;100413.09;10360632;28;20285;-60
2024/04/02 12:36:48;;;;;;;12.50;2.00;;;;;;;17.29;57.64;100428.19;10352162;28;20273;-63
2024/04/02 12:41:48;;;;;;;10.25;2.95;;;;;;;17.48;58.36;100421.66;10370541;28;20291;-60
2024/04/02 12:46:49;;;;;;;9.57;2.03;;;;;;;17.58;59.68;100430.63;10370014;28;20037;-61
2024/04/02 12:51:52;;;;;;;8.43;1.90;;;;;;;17.61;59.18;100424.66;10370119;28;20053;-62
2024/04/02 12:56:53;;;;;;;16.20;3.45;;;;;;;17.65;59.29;100428.38;10335563;28;20613;-62
2024/04/02 13:01:53;;;;;;;12.57;2.60;;;;;;;17.61;59.01;100425.47;10369658;28;20030;-63
2024/04/02 13:06:53;;;;;;;9.45;2.50;;;;;;;17.60;59.58;100426.56;10357783;28;20649;-61
2024/04/02 13:11:54;;;;;;;11.90;2.67;;;;;;;17.65;59.99;100412.28;10375706;28;20085;-62
2024/04/02 13:16:54;;;;;;;16.63;2.53;;;;;;;17.64;59.98;100413.34;10433133;28;20029;-60
2024/04/02 13:21:54;;;;;;;11.88;2.22;;;;;;;17.64;60.15;100403.44;10450697;28;20311;-63
2024/04/02 13:26:55;;;;;;;15.60;3.63;;;;;;;17.63;59.08;100393.78;10450646;28;20033;-60
2024/04/02 13:31:55;;;;;;;15.47;3.37;;;;;;;17.63;60.10;100393.00;10450671;28;20275;-60
2024/04/02 13:36:55;;;;;;;13.43;2.20;;;;;;;17.57;59.79;100391.50;10445645;28;20576;-67
2024/04/02 13:41:56;;;;;;;11.55;2.90;;;;;;;17.49;60.38;100392.97;10437091;28;20291;-65
2024/04/02 13:46:56;;;;;;;18.57;4.50;;;;;;;17.70;59.48;100385.38;10431834;28;20036;-63
2024/04/02 13:51:57;;;;;;;12.90;3.23;;;;;;;17.78;59.67;100382.81;10431936;28;21140;-63
2024/04/02 13:56:59;;;;;;;13.77;3.03;;;;;;;17.86;59.65;100384.00;10449599;28;20872;-61
2024/04/02 14:01:59;;;;;;;14.20;3.20;;;;;;;17.92;59.24;100387.38;10449820;28;20036;-63
2024/04/02 14:07:00;;;;;;;15.17;2.50;;;;;;;17.89;59.29;100377.25;10420689;28;20028;-63
2024/04/02 14:12:00;;;;;;;11.45;2.65;;;;;;;17.88;59.99;100389.88;10448836;28;20292;-63
2024/04/02 14:17:02;;;;;;;21.07;4.03;;;;;;;17.89;59.32;100393.34;10448340;28;20074;-62
2024/04/02 14:22:03;;;;;;;12.68;2.95;;;;;;;17.88;60.05;100395.25;10448917;28;20295;-65
2024/04/02 14:27:03;;;;;;;19.55;3.67;;;;;;;17.60;60.12;100389.03;10447403;28;20465;-60
2024/04/02 14:32:04;;;;;;;15.43;4.05;;;;;;;17.59;59.95;100392.78;10451824;28;20021;-62
2024/04/02 14:37:04;;;;;;;17.58;5.13;;;;;;;17.61;59.64;100398.66;10438867;28;20074;-62
2024/04/02 14:42:06;;;;;;;11.63;2.70;;;;;;;17.62;59.41;100388.72;10457215;28;20052;-64
2024/04/02 14:47:06;;;;;;;10.23;2.53;;;;;;;17.50;59.96;100389.19;10456137;28;20319;-60
2024/04/02 14:52:06;;;;;;;10.47;2.40;;;;;;;17.38;60.21;100375.47;10456068;28;20056;-62
2024/04/02 14:57:07;;;;;;;8.30;2.60;;;;;;;17.27;60.05;100377.53;10455595;28;20875;-62
2024/04/02 15:02:09;;;;;;;8.73;2.85;;;;;;;17.21;60.02;100400.16;10421490;28;20095;-61
2024/04/02 15:07:09;;;;;;;10.45;3.58;;;;;;;17.17;60.12;100385.78;10422955;28;20017;-61
2024/04/02 15:12:10;;;;;;;15.20;2.75;;;;;;;17.34;59.15;100402.09;10437126;28;20048;-61
2024/04/02 15:17:10;;;;;;;11.65;3.03;;;;;;;17.27;58.75;100412.38;10437816;28;20560;-62
2024/04/02 15:22:11;;;;;;;8.93;1.90;;;;;;;17.23;59.12;100411.38;10437139;28;20040;-62
2024/04/02 15:27:12;;;;;;;7.60;2.58;;;;;;;17.17;58.95;100404.53;10453854;28;20032;-62
2024/04/02 15:32:13;;;;;;;13.65;3.03;;;;;;;17.19;58.90;100405.81;10453625;28;20028;-63
2024/04/02 15:37:13;;;;;;;8.55;2.17;;;;;;;17.19;59.01;100397.00;10443078;28;20021;-62
2024/04/02 15:42:15;;;;;;;5.10;2.67;;;;;;;17.20;59.20;100407.41;10435917;28;20028;-62
2024/04/02 15:47:16;;;;;;;6.95;1.92;;;;;;;17.36;58.05;100407.16;10436753;28;20331;-62
2024/04/02 15:52:16;;;;;;;4.37;1.73;;;;;;;17.43;57.96;100399.53;10434476;28;20103;-62
2024/04/02 15:57:17;;;;;;;3.80;1.83;;;;;;;17.42;57.06;100412.13;10435844;28;20752;-61
2024/04/02 16:02:17;;;;;;;7.63;1.67;;;;;;;17.41;56.47;100410.56;10453091;28;20067;-62
2024/04/02 16:07:17;;;;;;;5.33;1.60;;;;;;;17.37;56.81;100417.56;10434297;28;20048;-61
2024/04/02 16:12:19;;;;;;;5.57;1.57;;;;;;;17.35;57.99;100427.78;10435244;28;20302;-61
2024/04/02 16:17:24;;;;;;;5.53;1.60;;;;;;;17.30;57.24;100432.47;10452243;28;20378;-63
2024/04/02 16:22:24;;;;;;;7.15;2.50;;;;;;;17.47;56.60;100422.75;10431014;28;20132;-60
2024/04/02 16:27:24;;;;;;;13.37;2.17;;;;;;;17.58;59.65;100423.38;10453025;28;20055;-63
2024/04/02 16:32:25;;;;;;;10.83;2.93;;;;;;;17.54;59.06;100420.50;10452910;28;20283;-62
2024/04/02 16:37:25;;;;;;;13.17;2.50;;;;;;;17.58;58.33;100423.38;10447847;28;20279;-64
2024/04/02 16:42:25;;;;;;;5.37;2.00;;;;;;;17.69;58.12;100434.75;10435451;28;20669;-62
2024/04/02 16:47:26;;;;;;;7.57;2.43;;;;;;;17.84;57.47;100439.81;10419153;28;20291;-61
2024/04/02 16:52:27;;;;;;;5.20;1.60;;;;;;;17.81;57.97;100445.78;10450314;28;20298;-62
2024/04/02 16:57:27;;;;;;;10.68;2.83;;;;;;;17.83;57.68;100447.06;10449909;28;20304;-63
2024/04/02 17:02:27;;;;;;;8.83;1.70;;;;;;;17.75;57.61;100455.00;10437951;28;20025;-63
2024/04/02 17:07:28;;;;;;;6.80;2.27;;;;;;;17.67;58.23;100451.09;10394497;28;20283;-62
2024/04/02 17:12:28;;;;;;;8.88;2.00;;;;;;;17.61;58.39;100463.00;10428026;28;20296;-62
2024/04/02 17:17:28;;;;;;;10.23;1.98;;;;;;;17.56;57.18;100468.47;10408643;28;20637;-62
2024/04/02 17:22:29;;;;;;;7.30;1.93;;;;;;;17.49;57.37;100478.75;10371398;28;20038;-63
2024/04/02 17:27:29;;;;;;;6.63;1.43;;;;;;;17.43;57.14;100475.38;10373823;28;20295;-62
2024/04/02 17:32:29;;;;;;;7.30;1.97;;;;;;;17.48;58.56;100486.00;10375353;28;20768;-62
2024/04/02 17:37:30;;;;;;;6.85;2.75;;;;;;;17.38;57.05;100485.38;10368217;28;20272;-62
2024/04/02 17:42:30;;;;;;;8.02;2.13;;;;;;;17.33;58.24;100496.19;10349552;28;20088;-62
2024/04/02 17:47:30;;;;;;;8.27;1.35;;;;;;;17.30;58.32;100496.78;10350668;28;20026;-62
2024/04/02 17:52:31;;;;;;;5.33;1.60;;;;;;;17.25;57.81;100494.94;10367631;28;20044;-62
2024/04/02 17:57:31;;;;;;;4.27;1.33;;;;;;;17.22;59.08;100498.22;10350345;28;20291;-62
2024/04/02 18:02:31;;;;;;;3.70;1.23;;;;;;;17.26;58.53;100507.25;10367188;28;20268;-63
2024/04/02 18:07:32;;;;;;;5.23;1.43;;;;;;;17.31;59.61;100511.75;10369361;28;20288;-62
2024/04/02 18:12:33;;;;;;;5.37;1.37;;;;;;;17.34;57.76;100500.44;10366501;28;20296;-62
2024/04/02 18:17:33;;;;;;;5.82;1.77;;;;;;;17.42;58.54;100508.63;10367741;28;20293;-61
2024/04/02 18:22:34;;;;;;;9.13;2.70;;;;;;;17.41;58.68;100515.06;10349013;28;20033;-61
2024/04/02 18:27:34;;;;;;;6.40;2.00;;;;;;;17.46;58.78;100523.03;10366195;28;20664;-62
2024/04/02 18:32:34;;;;;;;3.33;1.25;;;;;;;17.46;58.50;100522.22;10334943;28;20275;-62
2024/04/02 18:37:35;;;;;;;3.37;1.30;;;;;;;17.34;58.45;100535.28;10377265;28;20405;-62
2024/04/02 18:42:36;;;;;;;8.25;1.30;;;;;;;17.27;58.68;100543.69;10384941;28;20280;-62
2024/04/02 18:47:36;;;;;;;4.47;1.30;;;;;;;17.23;58.43;100540.00;10365563;28;20038;-62
2024/04/02 18:52:37;;;;;;;3.45;1.45;;;;;;;17.21;58.60;100547.53;10338860;28;20276;-62
2024/04/02 18:57:37;;;;;;;6.20;1.30;;;;;;;17.19;59.26;100547.03;10359698;28;20049;-61
2024/04/02 19:02:37;;;;;;;2.80;1.03;;;;;;;17.16;59.24;100551.06;10321156;28;20289;-62
2024/04/02 19:07:37;;;;;;;3.87;1.27;;;;;;;17.13;58.49;100550.84;10359767;28;20745;-62
2024/04/02 19:12:38;;;;;;;5.87;1.60;;;;;;;17.12;59.08;100554.63;10377899;28;20303;-61
2024/04/02 19:17:39;;;;;;;5.28;1.10;;;;;;;17.07;59.50;100555.50;10366038;28;20303;-61
2024/04/02 19:22:40;;;;;;;5.90;1.65;;;;;;;17.01;60.26;100553.97;10447101;28;20500;-62
2024/04/02 19:27:40;;;;;;;4.88;1.60;;;;;;;16.99;60.23;100555.34;10451886;28;20032;-61
2024/04/02 19:32:41;;;;;;;6.80;1.60;;;;;;;17.08;58.89;100551.72;10451536;28;20021;-61
2024/04/02 19:37:41;;;;;;;3.67;1.13;;;;;;;17.08;59.39;100553.63;10420472;28;20651;-62
2024/04/02 19:42:41;;;;;;;5.78;1.73;;;;;;;17.13;58.49;100561.56;10435107;28;20279;-60
2024/04/02 19:47:42;;;;;;;6.17;1.37;;;;;;;17.16;59.32;100558.31;10436331;28;20036;-62
2024/04/02 19:52:42;;;;;;;5.87;1.63;;;;;;;17.17;59.64;100555.38;10436336;28;20271;-63
2024/04/02 19:57:42;;;;;;;3.25;1.50;;;;;;;17.21;59.33;100555.56;10453649;28;20275;-62
2024/04/02 20:02:43;;;;;;;5.83;1.43;;;;;;;17.19;59.26;100549.72;10453289;28;20024;-62
2024/04/02 20:07:44;;;;;;;4.53;1.70;;;;;;;17.23;58.18;100556.06;10453186;28;20290;-62
2024/04/02 20:12:44;;;;;;;2.33;1.27;;;;;;;17.29;57.69;100554.13;10452255;28;20037;-62
2024/04/02 20:17:44;;;;;;;4.20;1.50;;;;;;;17.27;58.98;100554.41;10435141;28;20267;-62
2024/04/02 20:22:45;;;;;;;4.23;1.40;;;;;;;17.27;58.60;100550.91;10452158;28;20275;-62
2024/04/02 20:27:45;;;;;;;3.65;1.45;;;;;;;17.25;58.16;100541.28;10434604;28;20295;-62
2024/04/02 20:32:45;;;;;;;6.13;1.40;;;;;;;17.30;58.76;100540.44;10452787;28;20024;-62
2024/04/02 20:37:46;;;;;;;2.63;1.07;;;;;;;17.31;57.69;100542.03;10452993;28;20811;-63
2024/04/02 20:42:46;;;;;;;4.40;1.50;;;;;;;17.30;57.21;100545.00;10452522;28;20286;-63
2024/04/02 20:47:46;;;;;;;5.73;1.93;;;;;;;17.35;57.11;100531.53;10434874;28;20326;-62
2024/04/02 20:52:47;;;;;;;4.38;1.73;;;;;;;17.36;57.12;100538.47;10452271;28;20710;-62
2024/04/02 20:57:47;;;;;;;3.25;1.73;;;;;;;17.35;57.80;100537.66;10452212;28;20476;-63
2024/04/02 21:02:47;;;;;;;5.43;1.77;;;;;;;17.34;57.41;100538.75;10433579;28;20070;-62
2024/04/02 21:07:48;;;;;;;4.97;1.87;;;;;;;17.32;57.79;100529.44;10451502;28;20029;-62
2024/04/02 21:12:49;;;;;;;4.30;1.70;;;;;;;17.28;57.49;100520.34;10409031;28;20326;-62
2024/04/02 21:17:49;;;;;;;3.88;1.73;;;;;;;17.27;58.18;100530.28;10409086;28;20021;-62
2024/04/02 21:22:51;;;;;;;4.00;2.00;;;;;;;17.29;58.11;100525.44;10408478;28;20040;-61
2024/04/02 21:27:51;;;;;;;4.57;2.20;;;;;;;17.30;56.92;100521.69;10409615;28;20609;-62
2024/04/02 21:32:51;;;;;;;6.40;1.83;;;;;;;17.33;57.87;100528.34;10390447;28;20030;-62
2024/04/02 21:37:51;;;;;;;4.27;1.80;;;;;;;17.31;56.92;100531.31;10368414;28;20272;-62
2024/04/02 21:42:52;;;;;;;3.40;1.40;;;;;;;17.33;57.78;100531.81;10350329;28;20277;-63
2024/04/02 21:48:00;;;;;;;3.50;1.50;;;;;;;17.34;58.38;100546.00;10368541;28;20281;-62
2024/04/02 21:53:00;;;;;;;8.43;1.52;;;;;;;17.31;57.63;100547.38;10367724;28;20933;-62
2024/04/02 21:58:00;;;;;;;4.03;1.40;;;;;;;17.31;58.29;100554.63;10368175;28;20106;-62
2024/04/02 22:03:01;;;;;;;4.37;1.97;;;;;;;17.28;57.65;100558.66;10367826;28;20068;-62
2024/04/02 22:08:04;;;;;;;6.87;2.33;;;;;;;17.34;56.82;100557.53;10367620;28;20289;-63
2024/04/02 22:13:04;;;;;;;5.10;1.75;;;;;;;17.35;58.21;100552.97;10358558;28;20312;-62
2024/04/02 22:18:05;;;;;;;3.63;1.77;;;;;;;17.35;58.15;100542.25;10367702;28;20369;-62
2024/04/02 22:23:05;;;;;;;3.60;1.60;;;;;;;17.33;56.92;100550.56;10333422;28;20026;-62
2024/04/02 22:28:06;;;;;;;5.80;2.00;;;;;;;17.32;57.79;100554.34;10349801;28;20080;-62
2024/04/02 22:33:06;;;;;;;5.60;1.83;;;;;;;17.30;57.54;100542.31;10367281;28;20980;-62
2024/04/02 22:38:06;;;;;;;3.78;1.67;;;;;;;17.35;56.26;100539.56;10367278;28;20273;-62
2024/04/02 22:43:07;;;;;;;2.10;1.47;;;;;;;17.33;58.12;100537.16;10349101;28;20029;-62
2024/04/02 22:48:07;;;;;;;3.30;1.70;;;;;;;17.34;58.04;100541.44;10349585;28;20292;-62
2024/04/02 22:53:09;;;;;;;5.30;1.70;;;;;;;17.35;57.76;100537.66;10352434;28;20280;-62
2024/04/02 22:58:09;;;;;;;4.63;1.95;;;;;;;17.34;56.46;100533.41;10357053;28;20280;-62
2024/04/02 23:03:11;;;;;;;3.33;1.40;;;;;;;17.34;57.12;100537.97;10374290;28;20758;-62